Time;durP1;ratioP1;P1;durP2;ratioP2;P2;SDS_P1;SDS_P2;PMS_P1;PMS_P2;Temp;Humidity;BMP_temperature;BMP_pressure;BME280_temperature;BME280_humidity;BME280_pressure;Samples;Min_cycle;Max_cycle;Signal;HPM_P1;HPM_P2
2022/08/04 05:13:45;;;;;;;;;;;18.80;99.90;;;;;;6236878;22;19919;-68
2022/08/04 05:16:24;;;;;;;;;;;18.80;99.90;;;;;;6220669;23;19998;-68
2022/08/04 05:19:14;;;;;;;;;;;18.90;99.90;;;;;;6220436;23;19920;-68
2022/08/04 05:21:50;;;;;;;;;;;18.90;99.90;;;;;;6220752;23;19955;-67
2022/08/04 05:24:17;;;;;;;;;;;19.00;99.90;;;;;;6220752;23;19919;-67
2022/08/04 05:26:44;;;;;;;;;;;19.00;99.90;;;;;;6195348;23;19926;-66
2022/08/04 05:29:12;;;;;;;;;;;19.00;99.90;;;;;;6247649;23;20384;-69
2022/08/04 05:31:43;;;;;;;;;;;19.10;99.90;;;;;;6220264;23;19928;-70
2022/08/04 05:34:19;;;;;;;;;;;19.10;99.90;;;;;;6195394;23;19920;-70
2022/08/04 05:36:49;;;;;;;;;;;19.20;99.90;;;;;;6195340;23;19927;-72
2022/08/04 05:39:23;;;;;;;;;;;19.20;99.90;;;;;;6195472;23;19930;-72
2022/08/04 05:41:52;;;;;;;;;;;19.20;99.90;;;;;;6220281;23;19924;-72
2022/08/04 05:44:18;;;;;;;;;;;19.20;99.90;;;;;;6220148;23;19924;-72
2022/08/04 05:46:49;;;;;;;;;;;19.30;99.90;;;;;;6219982;23;19943;-70
2022/08/04 05:49:15;;;;;;;;;;;19.40;99.90;;;;;;6218956;23;19920;-70
2022/08/04 05:51:44;;;;;;;;;;;19.50;99.90;;;;;;6194271;23;20002;-69
2022/08/04 05:54:10;;;;;;;;;;;19.60;99.90;;;;;;6218825;23;19919;-70
2022/08/04 05:56:37;;;;;;;;;;;19.70;99.90;;;;;;6245304;23;19961;-70
2022/08/04 05:59:04;;;;;;;;;;;19.80;99.90;;;;;;6218749;23;20017;-70
2022/08/04 06:01:30;;;;;;;;;;;19.90;99.90;;;;;;6193553;23;20286;-70
2022/08/04 06:03:56;;;;;;;;;;;20.00;99.90;;;;;;6220137;23;19915;-70
2022/08/04 06:06:22;;;;;;;;;;;20.00;99.90;;;;;;6194744;23;19977;-70
2022/08/04 06:08:47;;;;;;;;;;;20.10;99.90;;;;;;6219777;23;19922;-70
2022/08/04 06:11:14;;;;;;;;;;;20.20;99.90;;;;;;6219738;23;19916;-70
2022/08/04 07:38:32;;;;;;;;;;;24.00;99.90;;;;;;6244264;22;19950;-76
2022/08/04 07:41:20;;;;;;;;;;;24.20;99.90;;;;;;6196314;23;20330;-72
2022/08/04 07:47:14;;;;;;;;;;;24.60;99.90;;;;;;6248027;23;19914;-73
2022/08/04 07:49:51;;;;;;;;;;;24.80;99.90;;;;;;6221549;23;19923;-74
2022/08/04 07:52:20;;;;;;;;;;;25.20;99.90;;;;;;6220458;23;19919;-76
2022/08/04 07:54:46;;;;;;;;;;;25.30;99.90;;;;;;6196028;23;19957;-74
2022/08/04 07:57:11;;;;;;;;;;;25.30;99.90;;;;;;6221127;23;19919;-75
2022/08/04 07:59:37;;;;;;;;;;;25.50;99.90;;;;;;6196639;23;19949;-74
2022/08/04 08:02:05;;;;;;;;;;;25.60;99.90;;;;;;6221168;23;20273;-76
2022/08/04 08:04:31;;;;;;;;;;;25.90;99.90;;;;;;6196051;23;19998;-75
2022/08/04 08:06:57;;;;;;;;;;;26.20;99.90;;;;;;6196241;23;20434;-76
2022/08/04 08:09:26;;;;;;;;;;;26.40;99.90;;;;;;6196647;23;19926;-76
2022/08/04 08:11:52;;;;;;;;;;;26.60;99.90;;;;;;6221099;23;19959;-74
2022/08/04 08:14:18;;;;;;;;;;;26.80;99.90;;;;;;6247832;22;19923;-75
2022/08/04 08:16:47;;;;;;;;;;;26.90;99.90;;;;;;6221041;23;20015;-75
2022/08/04 08:19:26;;;;;;;;;;;26.90;99.90;;;;;;6171164;23;19920;-75
2022/08/04 08:21:55;;;;;;;;;;;26.70;99.90;;;;;;6195589;23;19951;-76
2022/08/04 08:24:47;;;;;;;;;;;26.50;99.90;;;;;;6221652;23;19915;-75
2022/08/04 08:27:26;;;;;;;;;;;26.50;99.90;;;;;;6195612;23;19915;-76
2022/08/04 08:30:00;;;;;;;;;;;26.60;99.90;;;;;;6196233;23;19919;-77
2022/08/04 08:32:30;;;;;;;;;;;26.80;99.90;;;;;;6218619;23;19994;-75
2022/08/04 08:35:11;;;;;;;;;;;26.80;99.90;;;;;;6247299;22;20024;-76
2022/08/04 08:37:53;;;;;;;;;;;26.90;99.90;;;;;;6219965;23;19962;-75
2022/08/04 08:40:28;;;;;;;;;;;27.00;99.90;;;;;;6220349;23;19919;-75
2022/08/04 08:43:28;;;;;;;;;;;27.10;99.90;;;;;;6196040;23;19915;-76
2022/08/04 08:46:31;;;;;;;;;;;27.50;99.90;;;;;;6220300;23;19958;-75
2022/08/04 08:49:18;;;;;;;;;;;27.50;99.90;;;;;;6194891;23;19920;-76
2022/08/04 08:52:05;;;;;;;;;;;27.40;99.90;;;;;;6247788;23;20319;-76
2022/08/04 08:55:14;;;;;;;;;;;27.60;99.90;;;;;;6195530;23;19927;-76
2022/08/04 08:58:14;;;;;;;;;;;27.70;99.90;;;;;;6101576;23;19972;-76
2022/08/04 09:01:26;;;;;;;;;;;27.60;99.90;;;;;;6217021;23;19920;-76
2022/08/04 09:04:27;;;;;;;;;;;27.70;99.90;;;;;;6099869;23;20415;-75
2022/08/04 09:07:34;;;;;;;;;;;27.80;99.90;;;;;;6109018;23;20007;-76
2022/08/04 09:10:50;;;;;;;;;;;28.00;99.90;;;;;;6219263;23;19920;-76
2022/08/04 09:20:24;;;;;;;;;;;;;;;;;;;;;
2022/08/04 09:23:23;;;;;;;;;;;27.90;99.90;;;;;;6100209;23;19917;-76
2022/08/04 09:26:29;;;;;;;;;;;;;;;;;;;;;
2022/08/04 09:29:40;;;;;;;;;;;28.00;99.90;;;;;;6124781;23;20259;-76
2022/08/04 09:32:45;;;;;;;;;;;28.00;99.90;;;;;;6123918;23;19916;-77
2022/08/04 09:35:48;;;;;;;;;;;28.00;99.90;;;;;;6124489;23;20315;-75
2022/08/04 09:38:39;;;;;;;;;;;28.10;99.90;;;;;;6082771;23;19917;-75
2022/08/04 09:41:25;;;;;;;;;;;28.20;99.90;;;;;;5998179;23;19925;-73
2022/08/04 09:43:56;;;;;;;;;;;28.30;99.90;;;;;;6088627;23;19920;-78
2022/08/04 09:46:26;;;;;;;;;;;28.30;99.30;;;;;;6157371;23;19916;-76
2022/08/04 09:48:55;;;;;;;;;;;28.30;99.40;;;;;;6132791;23;19916;-76
2022/08/04 09:51:39;;;;;;;;;;;28.20;99.40;;;;;;6132794;23;19995;-73
2022/08/04 09:54:14;;;;;;;;;;;28.30;99.40;;;;;;6157278;23;19955;-78
2022/08/04 09:56:52;;;;;;;;;;;28.50;98.80;;;;;;6157021;23;19916;-81
2022/08/04 09:59:24;;;;;;;;;;;28.50;97.80;;;;;;6132088;23;19920;-75
2022/08/04 10:01:55;;;;;;;;;;;28.40;98.50;;;;;;6132922;23;19917;-78
2022/08/04 10:04:21;;;;;;;;;;;28.30;97.80;;;;;;6163900;23;19915;-83
2022/08/04 10:06:58;;;;;;;;;;;28.40;97.90;;;;;;6163125;23;19916;-78
2022/08/04 10:10:01;;;;;;;;;;;28.30;97.40;;;;;;6163290;23;19920;-81
2022/08/04 10:15:35;;;;;;;;;;;28.70;96.10;;;;;;6214192;23;19916;-77
2022/08/04 10:18:29;;;;;;;;;;;;;;;;;;;;;
2022/08/04 10:21:02;;;;;;;;;;;28.50;96.20;;;;;;6188191;23;20334;-81
2022/08/04 10:23:49;;;;;;;;;;;28.50;95.50;;;;;;6169331;23;19920;-80
2022/08/04 10:26:30;;;;;;;;;;;28.30;95.30;;;;;;6191187;23;20389;-74
2022/08/04 10:29:39;;;;;;;;;;;;;;;;;;;;;
2022/08/04 10:36:01;;;;;;;;;;;;;;;;;;;;;
2022/08/04 10:49:08;;;;;;;;;;;;;;;;;;;;;
2022/08/04 10:51:52;;;;;;;;;;;27.60;97.10;;;;;;6218251;23;19941;-83
2022/08/04 10:54:20;;;;;;;;;;;27.70;97.80;;;;;;6218512;22;19919;-74
2022/08/04 10:56:52;;;;;;;;;;;27.50;98.20;;;;;;6192979;23;20302;-75
2022/08/04 10:59:36;;;;;;;;;;;27.40;98.30;;;;;;6193338;23;20174;-76
2022/08/04 11:02:19;;;;;;;;;;;27.50;99.30;;;;;;6217973;23;19990;-77
2022/08/04 11:04:47;;;;;;;;;;;27.40;99.20;;;;;;6218506;23;19919;-83
2022/08/04 11:10:58;;;;;;;;;;;27.70;98.20;;;;;;6208400;23;19919;-77
2022/08/04 11:13:24;;;;;;;;;;;27.80;97.60;;;;;;6195449;23;19920;-73
2022/08/04 11:16:12;;;;;;;;;;;27.80;96.50;;;;;;6219646;23;19986;-73
2022/08/04 11:19:03;;;;;;;;;;;27.80;96.00;;;;;;6246737;23;19915;-78
2022/08/04 11:21:32;;;;;;;;;;;27.80;93.60;;;;;;6220189;23;19923;-75
2022/08/04 11:24:03;;;;;;;;;;;27.70;94.10;;;;;;6195307;23;19916;-78
2022/08/04 11:26:37;;;;;;;;;;;27.60;93.20;;;;;;6194605;23;19926;-79
2022/08/04 11:29:32;;;;;;;;;;;27.50;93.80;;;;;;6195429;23;19926;-80
2022/08/04 11:32:31;;;;;;;;;;;27.70;93.80;;;;;;6169525;23;20215;-74
2022/08/04 11:35:51;;;;;;;;;;;27.90;94.10;;;;;;6123923;23;20279;-77
2022/08/04 11:38:24;;;;;;;;;;;28.10;94.10;;;;;;6194493;23;19919;-75
2022/08/04 11:40:52;;;;;;;;;;;28.20;94.00;;;;;;6219962;23;19915;-74
2022/08/04 11:43:23;;;;;;;;;;;28.10;94.80;;;;;;6219891;23;19920;-74
2022/08/04 11:46:08;;;;;;;;;;;28.00;96.10;;;;;;6194541;23;20273;-74
2022/08/04 11:48:43;;;;;;;;;;;27.70;96.90;;;;;;6219650;23;19938;-74
2022/08/04 11:51:12;;;;;;;;;;;27.40;97.40;;;;;;6219928;23;19919;-73
2022/08/04 11:53:41;;;;;;;;;;;27.30;97.90;;;;;;6218574;23;19922;-75
2022/08/04 11:56:10;;;;;;;;;;;27.20;97.90;;;;;;6195820;23;19920;-74
2022/08/04 12:02:24;;;;;;;;;;;27.30;97.50;;;;;;6246516;23;20391;-73
2022/08/04 12:37:49;;;;;;;;;;;28.00;97.20;;;;;;6149042;23;19951;-84
2022/08/04 12:43:56;;;;;;;;;;;27.30;98.30;;;;;;6189453;23;19924;-77
2022/08/04 12:50:10;;;;;;;;;;;27.10;98.30;;;;;;6216210;23;19952;-75
2022/08/04 12:59:46;;;;;;;;;;;27.60;98.40;;;;;;6216339;23;19918;-75
2022/08/04 13:05:41;;;;;;;;;;;28.00;97.60;;;;;;6215812;23;19915;-74
2022/08/04 13:08:12;;;;;;;;;;;28.00;97.60;;;;;;6189744;23;20246;-74
2022/08/04 13:10:56;;;;;;;;;;;27.70;97.40;;;;;;6164296;23;20323;-75
2022/08/04 13:13:38;;;;;;;;;;;27.40;97.40;;;;;;6187942;23;19920;-76
2022/08/04 13:16:28;;;;;;;;;;;27.30;98.70;;;;;;6210246;23;19916;-78
2022/08/04 13:33:33;;;;;;;;;;;27.60;98.70;;;;;;6235448;22;19927;-82
2022/08/04 13:43:29;;;;;;;;;;;27.90;98.20;;;;;;6153545;23;19916;-86
2022/08/04 13:49:22;;;;;;;;;;;28.00;97.70;;;;;;6153720;23;19931;-81
2022/08/04 13:55:57;;;;;;;;;;;27.30;98.00;;;;;;6047684;23;19929;-83
2022/08/04 14:01:59;;;;;;;;;;;26.60;99.60;;;;;;6065922;23;19960;-84
2022/08/04 14:04:26;;;;;;;;;;;26.40;99.90;;;;;;6075832;23;19923;-76
2022/08/04 14:07:04;;;;;;;;;;;26.00;99.70;;;;;;6127490;23;19995;-76
2022/08/04 14:09:31;;;;;;;;;;;26.00;98.50;;;;;;6219365;23;19995;-76
2022/08/04 14:12:05;;;;;;;;;;;26.00;97.80;;;;;;6219406;23;19920;-76
2022/08/04 14:14:31;;;;;;;;;;;25.90;98.10;;;;;;6194252;22;19926;-76
2022/08/04 14:17:02;;;;;;;;;;;26.10;97.40;;;;;;6219192;23;20343;-77
2022/08/04 14:19:29;;;;;;;;;;;25.90;97.40;;;;;;6194591;23;19987;-75
2022/08/04 14:21:54;;;;;;;;;;;26.00;97.20;;;;;;6219664;23;19916;-75
2022/08/04 14:24:31;;;;;;;;;;;26.00;96.90;;;;;;6219289;22;19969;-77
2022/08/04 14:27:00;;;;;;;;;;;26.20;96.10;;;;;;6219221;23;20285;-78
2022/08/04 14:29:34;;;;;;;;;;;26.20;96.30;;;;;;6194367;23;19916;-78
2022/08/04 14:32:01;;;;;;;;;;;26.30;95.20;;;;;;6194277;23;20082;-77
2022/08/04 14:34:28;;;;;;;;;;;26.20;95.20;;;;;;6219665;22;19920;-76
2022/08/04 14:36:54;;;;;;;;;;;26.50;95.00;;;;;;6194398;23;19922;-79
2022/08/04 14:39:51;;;;;;;;;;;26.60;94.30;;;;;;6194019;23;19955;-81
2022/08/04 14:42:17;;;;;;;;;;;26.90;94.10;;;;;;6195882;23;19922;-78
2022/08/04 14:44:56;;;;;;;;;;;27.10;94.10;;;;;;6196580;22;19982;-77
2022/08/04 14:47:41;;;;;;;;;;;27.10;93.30;;;;;;6196185;23;19922;-78
2022/08/04 14:50:07;;;;;;;;;;;27.30;94.10;;;;;;6196763;23;19955;-78
2022/08/04 14:52:33;;;;;;;;;;;27.30;93.80;;;;;;6196062;23;19920;-76
2022/08/04 14:55:13;;;;;;;;;;;27.10;93.50;;;;;;6196463;23;19968;-78
2022/08/04 14:57:42;;;;;;;;;;;27.10;93.60;;;;;;6235265;23;19916;-81
2022/08/04 15:00:39;;;;;;;;;;;27.20;93.10;;;;;;6174425;23;20254;-79
2022/08/04 15:03:07;;;;;;;;;;;27.10;92.80;;;;;;6192073;23;19923;-75
2022/08/04 15:05:33;;;;;;;;;;;27.20;92.80;;;;;;6219793;23;19922;-76
2022/08/04 15:08:11;;;;;;;;;;;27.30;92.90;;;;;;6194967;23;19916;-79
2022/08/04 15:26:14;;;;;;;;;;;28.00;92.20;;;;;;6245198;22;19930;-72
2022/08/04 15:28:57;;;;;;;;;;;27.70;92.90;;;;;;6220499;23;19945;-83
2022/08/04 15:31:33;;;;;;;;;;;27.70;93.40;;;;;;6194337;23;19927;-80
2022/08/04 15:33:59;;;;;;;;;;;28.30;92.30;;;;;;6195050;23;19926;-78
2022/08/04 15:36:44;;;;;;;;;;;27.70;92.00;;;;;;6220137;23;19951;-77
2022/08/04 15:39:28;;;;;;;;;;;28.00;92.50;;;;;;6220220;23;19969;-75
2022/08/04 15:42:08;;;;;;;;;;;28.00;91.90;;;;;;6219609;23;19920;-75
2022/08/04 15:44:45;;;;;;;;;;;28.40;90.90;;;;;;6219576;22;20303;-73
2022/08/04 15:47:15;;;;;;;;;;;28.60;90.80;;;;;;6219392;23;19923;-78
2022/08/04 16:04:07;;;;;;;;;;;;;;;;;;;;;
2022/08/04 16:06:36;;;;;;;;;;;28.70;90.10;;;;;;6042153;23;19917;-78
2022/08/04 16:09:08;;;;;;;;;;;28.90;87.80;;;;;;6018005;23;20007;-83
2022/08/04 16:11:38;;;;;;;;;;;28.50;90.10;;;;;;6121392;23;19916;-82
2022/08/04 16:14:30;;;;;;;;;;;28.10;90.60;;;;;;6132197;23;19916;-80
2022/08/04 16:17:12;;;;;;;;;;;28.00;91.40;;;;;;6128574;23;19921;-77
2022/08/04 16:23:18;;;;;;;;;;;27.20;91.10;;;;;;6153711;23;19916;-80
2022/08/04 16:25:47;;;;;;;;;;;26.30;92.80;;;;;;6153087;23;19917;-68
2022/08/04 16:28:31;;;;;;;;;;;25.70;94.00;;;;;;6220149;23;19920;-70
2022/08/04 16:31:01;;;;;;;;;;;25.40;94.00;;;;;;6220346;23;19989;-70
2022/08/04 16:33:27;;;;;;;;;;;25.00;94.60;;;;;;6196118;23;19919;-69
2022/08/04 16:35:54;;;;;;;;;;;24.60;96.10;;;;;;6220835;23;19969;-70
2022/08/04 16:38:19;;;;;;;;;;;24.30;96.90;;;;;;6247371;23;20326;-69
2022/08/04 16:40:52;;;;;;;;;;;24.40;97.10;;;;;;6246524;23;19926;-69
2022/08/04 16:43:19;;;;;;;;;;;24.40;97.30;;;;;;6220751;23;19988;-71
2022/08/04 16:45:45;;;;;;;;;;;24.30;97.50;;;;;;6220930;23;19926;-68
2022/08/04 16:48:11;;;;;;;;;;;24.10;98.20;;;;;;6220601;23;19955;-67
2022/08/04 16:50:56;;;;;;;;;;;24.00;97.80;;;;;;6220980;23;19946;-67
2022/08/04 16:53:23;;;;;;;;;;;23.80;98.30;;;;;;6195709;23;19923;-67
2022/08/04 16:55:50;;;;;;;;;;;23.70;98.00;;;;;;6247247;22;20339;-69
2022/08/04 16:58:16;;;;;;;;;;;23.50;97.80;;;;;;6247025;23;19986;-69
2022/08/04 17:00:42;;;;;;;;;;;23.10;99.10;;;;;;6220373;23;19919;-68
2022/08/04 17:03:08;;;;;;;;;;;23.00;99.30;;;;;;6220480;23;19920;-70
2022/08/04 17:05:36;;;;;;;;;;;22.80;99.90;;;;;;6220595;23;19943;-69
2022/08/04 17:08:01;;;;;;;;;;;22.60;99.90;;;;;;6246909;23;20380;-68
2022/08/04 17:10:30;;;;;;;;;;;22.50;99.90;;;;;;6220456;23;19990;-69
2022/08/04 17:12:55;;;;;;;;;;;22.40;99.90;;;;;;6220525;23;19919;-69
2022/08/04 17:15:21;;;;;;;;;;;22.30;99.90;;;;;;6220459;23;19930;-67
2022/08/04 17:17:47;;;;;;;;;;;22.30;99.90;;;;;;6195303;23;19919;-71
2022/08/04 17:20:13;;;;;;;;;;;22.30;99.90;;;;;;6220461;23;19923;-72
2022/08/04 17:22:39;;;;;;;;;;;22.40;99.90;;;;;;6220056;23;19923;-71
2022/08/04 17:25:05;;;;;;;;;;;22.30;99.90;;;;;;6247079;22;19920;-69
2022/08/04 17:27:30;;;;;;;;;;;22.30;99.90;;;;;;6247237;23;20002;-70
2022/08/04 17:29:56;;;;;;;;;;;22.30;99.90;;;;;;6220159;23;19919;-69
2022/08/04 17:32:22;;;;;;;;;;;22.10;99.90;;;;;;6220372;23;19924;-68
2022/08/04 17:34:48;;;;;;;;;;;22.00;99.90;;;;;;6195021;22;20353;-69
2022/08/04 17:37:14;;;;;;;;;;;21.90;99.90;;;;;;6247299;23;19915;-68
2022/08/04 17:39:39;;;;;;;;;;;21.80;99.90;;;;;;6220171;23;20357;-69
2022/08/04 17:42:05;;;;;;;;;;;21.70;99.90;;;;;;6220038;23;19938;-70
2022/08/04 17:44:36;;;;;;;;;;;21.60;99.90;;;;;;6195151;23;20359;-69
2022/08/04 17:47:15;;;;;;;;;;;21.50;99.90;;;;;;6243887;22;19923;-69
2022/08/04 17:49:40;;;;;;;;;;;21.30;99.90;;;;;;6218836;23;19965;-69
2022/08/04 17:52:08;;;;;;;;;;;21.40;99.90;;;;;;6245579;23;19920;-71
2022/08/04 17:54:35;;;;;;;;;;;21.40;99.90;;;;;;6193528;23;20349;-72
2022/08/04 17:57:12;;;;;;;;;;;21.30;99.90;;;;;;6193848;23;20326;-73
2022/08/04 17:59:42;;;;;;;;;;;21.30;99.90;;;;;;6219036;23;19920;-74
2022/08/04 18:02:08;;;;;;;;;;;21.40;99.90;;;;;;6218819;23;19926;-71
2022/08/04 18:04:37;;;;;;;;;;;21.40;99.90;;;;;;6245284;23;20246;-72
2022/08/04 18:07:04;;;;;;;;;;;21.40;99.90;;;;;;6218743;23;19969;-68
2022/08/04 18:09:31;;;;;;;;;;;21.40;99.90;;;;;;6219075;23;19920;-68
2022/08/04 18:12:01;;;;;;;;;;;21.30;99.90;;;;;;6245898;23;19920;-70
2022/08/04 18:14:35;;;;;;;;;;;21.30;99.90;;;;;;6218233;23;20357;-70
2022/08/04 18:17:00;;;;;;;;;;;21.40;99.90;;;;;;6218153;23;20330;-71
2022/08/04 18:19:27;;;;;;;;;;;21.40;99.90;;;;;;6218596;23;19916;-71
2022/08/04 18:21:53;;;;;;;;;;;21.20;99.90;;;;;;6218645;23;19926;-70
2022/08/04 18:24:19;;;;;;;;;;;21.00;99.90;;;;;;6168250;22;19920;-73
2022/08/04 18:26:44;;;;;;;;;;;20.90;99.90;;;;;;6218819;23;20357;-71
2022/08/04 18:29:10;;;;;;;;;;;20.80;99.90;;;;;;6193215;23;19922;-69
2022/08/04 18:31:36;;;;;;;;;;;20.80;99.90;;;;;;6193189;23;19994;-68
2022/08/04 18:34:05;;;;;;;;;;;20.80;99.90;;;;;;6245555;23;19926;-67
2022/08/04 18:36:31;;;;;;;;;;;20.80;99.90;;;;;;6218212;23;19919;-66
2022/08/04 18:39:00;;;;;;;;;;;20.70;99.90;;;;;;6218146;23;19998;-67
2022/08/04 18:41:26;;;;;;;;;;;20.60;99.90;;;;;;6193352;23;19915;-67
2022/08/04 18:43:53;;;;;;;;;;;20.60;99.90;;;;;;6218198;23;20315;-71
2022/08/04 18:46:18;;;;;;;;;;;20.50;99.90;;;;;;6192563;23;19920;-71
2022/08/04 18:48:44;;;;;;;;;;;20.40;99.90;;;;;;6218316;23;19943;-69
2022/08/04 18:51:09;;;;;;;;;;;20.30;99.90;;;;;;6193106;23;19946;-69
2022/08/04 18:53:35;;;;;;;;;;;20.20;99.90;;;;;;6245266;23;19920;-70
2022/08/04 18:56:01;;;;;;;;;;;20.20;99.90;;;;;;6218114;23;20899;-68
2022/08/04 18:58:26;;;;;;;;;;;20.20;99.90;;;;;;6218395;23;19922;-71
2022/08/04 19:00:54;;;;;;;;;;;20.10;99.90;;;;;;6218113;23;20002;-71
2022/08/04 19:03:20;;;;;;;;;;;20.10;99.90;;;;;;6217973;23;19920;-73
2022/08/04 19:05:45;;;;;;;;;;;20.00;99.90;;;;;;6244400;22;20223;-71
2022/08/04 19:08:11;;;;;;;;;;;20.00;99.90;;;;;;6218250;23;19919;-68
2022/08/04 19:10:36;;;;;;;;;;;20.00;99.90;;;;;;6218379;23;19915;-69
2022/08/04 19:13:02;;;;;;;;;;;19.90;99.90;;;;;;6218541;23;20006;-68
2022/08/04 19:15:30;;;;;;;;;;;19.80;99.90;;;;;;6193146;23;19923;-68
2022/08/04 19:17:55;;;;;;;;;;;19.80;99.90;;;;;;6218890;23;19920;-69
2022/08/04 19:20:21;;;;;;;;;;;19.70;99.90;;;;;;6192986;23;19994;-70
2022/08/04 19:22:47;;;;;;;;;;;19.70;99.90;;;;;;6168540;23;19970;-67
2022/08/04 19:25:12;;;;;;;;;;;19.60;99.90;;;;;;6217552;22;19978;-69
2022/08/04 19:27:38;;;;;;;;;;;19.50;99.90;;;;;;6219066;23;19920;-66
2022/08/04 19:30:04;;;;;;;;;;;19.40;99.90;;;;;;6220170;23;19927;-67
2022/08/04 19:32:30;;;;;;;;;;;19.40;99.90;;;;;;6220056;23;19924;-70
2022/08/04 19:34:56;;;;;;;;;;;19.30;99.90;;;;;;6220038;22;20353;-68
2022/08/04 19:37:21;;;;;;;;;;;19.20;99.90;;;;;;6220220;23;19931;-68
2022/08/04 19:39:47;;;;;;;;;;;19.20;99.90;;;;;;6195215;23;19915;-67
2022/08/04 19:42:13;;;;;;;;;;;19.20;99.90;;;;;;6246764;23;20242;-68
2022/08/04 19:44:38;;;;;;;;;;;19.10;99.90;;;;;;6220049;23;19923;-69
2022/08/04 19:47:04;;;;;;;;;;;19.10;99.90;;;;;;6219532;23;20026;-67
2022/08/04 19:49:30;;;;;;;;;;;19.00;99.90;;;;;;6220084;23;19928;-70
2022/08/04 19:51:55;;;;;;;;;;;19.00;99.90;;;;;;6194593;23;19923;-70
2022/08/04 19:54:21;;;;;;;;;;;18.90;99.90;;;;;;6247065;23;19919;-70
2022/08/04 19:56:46;;;;;;;;;;;18.80;99.90;;;;;;6219503;23;19922;-68
2022/08/04 19:59:12;;;;;;;;;;;18.80;99.90;;;;;;6220035;23;19954;-69
2022/08/04 20:01:38;;;;;;;;;;;18.70;99.90;;;;;;6219501;23;19919;-70
2022/08/04 20:04:03;;;;;;;;;;;18.70;99.90;;;;;;6219412;23;20382;-70
2022/08/04 20:06:29;;;;;;;;;;;18.60;99.90;;;;;;6219609;23;20330;-74
2022/08/04 20:08:55;;;;;;;;;;;18.60;99.90;;;;;;6219823;23;19972;-73
2022/08/04 20:11:20;;;;;;;;;;;18.50;99.90;;;;;;6195445;23;20401;-73
2022/08/04 20:13:46;;;;;;;;;;;18.50;99.90;;;;;;6221252;23;19926;-70
2022/08/04 20:16:12;;;;;;;;;;;18.40;99.90;;;;;;6195668;23;19919;-69
2022/08/04 20:18:38;;;;;;;;;;;18.40;99.90;;;;;;6171046;23;20407;-72
2022/08/04 20:21:03;;;;;;;;;;;18.30;99.90;;;;;;6195909;23;20003;-72
2022/08/04 20:23:29;;;;;;;;;;;18.30;99.90;;;;;;6247684;23;19990;-68
2022/08/04 20:25:55;;;;;;;;;;;18.30;99.90;;;;;;6220736;23;19920;-71
2022/08/04 20:28:21;;;;;;;;;;;18.30;99.90;;;;;;6195851;23;19923;-72
2022/08/04 20:30:48;;;;;;;;;;;18.20;99.90;;;;;;6196257;23;19919;-77
2022/08/04 20:33:13;;;;;;;;;;;18.10;99.90;;;;;;6170839;23;19962;-73
2022/08/04 20:35:42;;;;;;;;;;;18.10;99.90;;;;;;6193439;23;20040;-70
2022/08/04 20:38:07;;;;;;;;;;;18.10;99.90;;;;;;6194787;23;19960;-73
2022/08/04 20:40:35;;;;;;;;;;;18.00;99.90;;;;;;6220331;23;19915;-69
2022/08/04 20:43:01;;;;;;;;;;;17.90;99.90;;;;;;6195892;23;19995;-69
2022/08/04 20:45:26;;;;;;;;;;;17.80;99.90;;;;;;6220386;23;19946;-69
2022/08/04 20:47:52;;;;;;;;;;;17.80;99.90;;;;;;6195341;23;20278;-70
2022/08/04 20:50:18;;;;;;;;;;;17.70;99.90;;;;;;6219456;23;20005;-72
2022/08/04 20:52:44;;;;;;;;;;;17.70;99.90;;;;;;6219625;23;19919;-70
2022/08/04 20:55:10;;;;;;;;;;;17.60;99.90;;;;;;6194592;22;19919;-70
2022/08/04 20:57:36;;;;;;;;;;;17.50;99.90;;;;;;6246389;23;19965;-69
2022/08/04 21:00:03;;;;;;;;;;;17.50;99.90;;;;;;6219610;23;19919;-70
2022/08/04 21:02:28;;;;;;;;;;;17.50;99.90;;;;;;6194352;23;19926;-70
2022/08/04 21:04:54;;;;;;;;;;;17.40;99.90;;;;;;6219752;23;20250;-70
2022/08/04 21:07:21;;;;;;;;;;;17.40;99.90;;;;;;6194733;23;19920;-71
2022/08/04 21:09:47;;;;;;;;;;;17.40;99.90;;;;;;6220079;23;19942;-70
2022/08/04 21:12:13;;;;;;;;;;;17.50;99.90;;;;;;6219837;23;19970;-69
2022/08/04 21:14:39;;;;;;;;;;;17.40;99.90;;;;;;6246297;23;19919;-69
2022/08/04 21:17:05;;;;;;;;;;;17.40;99.90;;;;;;6194819;23;19927;-70
2022/08/04 21:19:30;;;;;;;;;;;17.40;99.90;;;;;;6194915;23;19924;-70
2022/08/04 21:21:56;;;;;;;;;;;17.40;99.90;;;;;;6219924;23;20006;-69
2022/08/04 21:24:22;;;;;;;;;;;17.40;99.90;;;;;;6219940;23;19919;-69
2022/08/04 21:26:48;;;;;;;;;;;17.40;99.90;;;;;;6219777;23;19999;-70
2022/08/04 21:29:14;;;;;;;;;;;17.40;99.90;;;;;;6194795;23;19999;-68
2022/08/04 21:31:40;;;;;;;;;;;17.50;99.90;;;;;;6219924;23;19923;-69
2022/08/04 21:34:05;;;;;;;;;;;17.50;99.90;;;;;;6247309;23;19920;-69
2022/08/04 21:36:31;;;;;;;;;;;17.50;99.90;;;;;;6220390;23;19923;-70
2022/08/04 21:38:56;;;;;;;;;;;17.50;99.90;;;;;;6219923;23;19919;-69
2022/08/04 21:41:22;;;;;;;;;;;17.50;99.90;;;;;;6219484;23;19920;-77
2022/08/04 21:43:47;;;;;;;;;;;17.50;99.90;;;;;;6220456;23;19961;-75
2022/08/04 21:46:13;;;;;;;;;;;17.50;99.90;;;;;;6220219;23;19955;-77
2022/08/04 21:48:38;;;;;;;;;;;17.50;99.90;;;;;;6220332;23;19946;-76
2022/08/04 21:51:15;;;;;;;;;;;17.50;99.90;;;;;;6195236;23;19927;-78
2022/08/04 21:53:40;;;;;;;;;;;17.50;99.90;;;;;;6195266;23;19951;-75
2022/08/04 21:56:06;;;;;;;;;;;17.50;99.90;;;;;;6194973;23;20326;-78
2022/08/04 21:58:32;;;;;;;;;;;17.50;99.90;;;;;;6220030;23;20254;-77
2022/08/04 22:00:57;;;;;;;;;;;17.50;99.90;;;;;;6194713;23;19930;-76
2022/08/04 22:03:23;;;;;;;;;;;17.40;99.90;;;;;;6195062;23;20289;-77
2022/08/04 22:05:48;;;;;;;;;;;17.40;99.90;;;;;;6194850;23;19968;-75
2022/08/04 22:08:14;;;;;;;;;;;17.50;99.90;;;;;;6195299;23;19920;-76
2022/08/04 22:10:39;;;;;;;;;;;17.50;99.90;;;;;;6220315;23;19920;-76
2022/08/04 22:13:05;;;;;;;;;;;17.40;99.90;;;;;;6194922;23;20258;-78
2022/08/04 22:15:31;;;;;;;;;;;17.40;99.90;;;;;;6219873;23;19946;-76
2022/08/04 22:17:56;;;;;;;;;;;17.50;99.90;;;;;;6194950;23;19915;-78
2022/08/04 22:20:22;;;;;;;;;;;17.50;99.90;;;;;;6219870;23;19991;-77
2022/08/04 22:22:47;;;;;;;;;;;17.50;99.90;;;;;;6219659;23;19915;-76
2022/08/04 22:25:13;;;;;;;;;;;17.40;99.90;;;;;;6219885;22;19942;-79
2022/08/04 22:30:23;;;;;;;;;;;17.40;99.90;;;;;;6220468;23;19966;-77
2022/08/04 22:32:48;;;;;;;;;;;17.40;99.90;;;;;;6195123;23;19924;-77
2022/08/04 22:35:15;;;;;;;;;;;17.30;99.90;;;;;;6220197;22;19935;-77
2022/08/04 22:37:40;;;;;;;;;;;17.30;99.90;;;;;;6195130;23;19919;-76
2022/08/04 22:40:06;;;;;;;;;;;17.20;99.90;;;;;;6198751;23;19942;-76
2022/08/04 22:42:32;;;;;;;;;;;17.30;99.90;;;;;;6226704;23;19943;-76
2022/08/04 22:44:58;;;;;;;;;;;17.30;99.90;;;;;;6224243;23;20305;-77
2022/08/04 22:47:23;;;;;;;;;;;17.30;99.90;;;;;;6219700;23;19919;-77
2022/08/04 22:49:49;;;;;;;;;;;17.30;99.90;;;;;;6220333;23;19926;-78
2022/08/04 22:52:14;;;;;;;;;;;17.30;99.90;;;;;;6194826;23;19927;-76
2022/08/04 22:54:40;;;;;;;;;;;17.30;99.90;;;;;;6219642;23;19919;-77
2022/08/04 22:57:05;;;;;;;;;;;17.20;99.90;;;;;;6220035;23;19977;-77
2022/08/04 22:59:31;;;;;;;;;;;17.20;99.90;;;;;;6220084;23;19924;-76
2022/08/04 23:01:57;;;;;;;;;;;17.20;99.90;;;;;;6220591;23;19958;-77
2022/08/04 23:04:22;;;;;;;;;;;17.20;99.90;;;;;;6222093;23;19998;-76
2022/08/04 23:06:48;;;;;;;;;;;17.20;99.90;;;;;;6221905;23;20242;-77
2022/08/04 23:09:13;;;;;;;;;;;17.20;99.90;;;;;;6221665;23;19924;-78
2022/08/04 23:11:39;;;;;;;;;;;17.20;99.90;;;;;;6222206;23;19919;-78
2022/08/04 23:14:05;;;;;;;;;;;17.20;99.90;;;;;;6196729;23;19986;-77
2022/08/04 23:16:31;;;;;;;;;;;17.20;99.90;;;;;;6196740;23;19927;-78
2022/08/04 23:18:57;;;;;;;;;;;17.20;99.90;;;;;;6196763;23;19924;-76
2022/08/04 23:21:22;;;;;;;;;;;17.20;99.90;;;;;;6196767;23;19973;-76
2022/08/04 23:23:48;;;;;;;;;;;17.20;99.90;;;;;;6196950;23;20353;-76
2022/08/04 23:26:17;;;;;;;;;;;17.10;99.90;;;;;;6221586;23;19919;-76
2022/08/04 23:28:44;;;;;;;;;;;17.10;99.90;;;;;;6222145;23;20317;-78
2022/08/04 23:31:10;;;;;;;;;;;17.10;99.90;;;;;;6222432;23;19990;-78
2022/08/04 23:33:36;;;;;;;;;;;17.10;99.90;;;;;;6195038;23;19957;-77
2022/08/04 23:36:01;;;;;;;;;;;17.10;99.90;;;;;;6221166;23;19923;-77
2022/08/04 23:38:27;;;;;;;;;;;17.10;99.90;;;;;;6196694;23;19920;-76
2022/08/04 23:40:53;;;;;;;;;;;17.00;99.90;;;;;;6221642;23;19994;-77
2022/08/04 23:43:18;;;;;;;;;;;17.00;99.90;;;;;;6219987;23;19924;-77
2022/08/04 23:45:50;;;;;;;;;;;17.00;99.90;;;;;;6196629;23;20003;-78
2022/08/04 23:48:16;;;;;;;;;;;17.00;99.90;;;;;;6195201;23;19990;-78
2022/08/04 23:50:41;;;;;;;;;;;17.00;99.90;;;;;;6219839;23;20278;-77
2022/08/04 23:53:07;;;;;;;;;;;17.00;99.90;;;;;;6195714;23;19985;-77
2022/08/04 23:55:32;;;;;;;;;;;17.10;99.90;;;;;;6221095;22;19947;-79
2022/08/04 23:57:58;;;;;;;;;;;17.00;99.90;;;;;;6221869;23;19923;-76
